createdAt,value
2018-05-23T00:01:58.912Z,17.27
2018-05-23T00:04:26.317Z,17.22
2018-05-23T00:06:53.737Z,17.19
2018-05-23T00:09:21.226Z,17.17
2018-05-23T00:11:48.685Z,17.14
2018-05-23T00:14:16.089Z,17.08
2018-05-23T00:16:43.584Z,17.02
2018-05-23T00:19:10.996Z,16.97
2018-05-23T00:21:38.494Z,16.92
2018-05-23T00:24:05.904Z,16.89
2018-05-23T00:26:33.312Z,16.86
2018-05-23T00:29:00.716Z,16.80
2018-05-23T00:31:28.138Z,16.73
2018-05-23T00:33:55.568Z,16.68
2018-05-23T00:36:22.981Z,16.65
2018-05-23T00:38:50.387Z,16.57
2018-05-23T00:41:17.863Z,16.51
2018-05-23T00:43:45.239Z,16.48
2018-05-23T00:46:12.656Z,16.43
2018-05-23T00:48:40.074Z,16.37
2018-05-23T00:51:07.489Z,16.32
2018-05-23T00:53:34.916Z,16.26
2018-05-23T00:56:02.372Z,16.20
2018-05-23T00:58:29.788Z,16.16
2018-05-23T01:00:57.200Z,16.11
2018-05-23T01:03:24.621Z,16.21
2018-05-23T01:05:52.036Z,16.29
2018-05-23T01:08:19.544Z,16.25
2018-05-23T01:10:46.978Z,16.19
2018-05-23T01:13:14.393Z,16.14
2018-05-23T01:15:41.808Z,16.08
2018-05-23T01:18:09.256Z,15.99
2018-05-23T01:20:36.713Z,15.89
2018-05-23T01:23:04.120Z,15.83
2018-05-23T01:25:31.621Z,15.76
2018-05-23T01:27:59.080Z,15.71
2018-05-23T01:30:26.493Z,15.68
2018-05-23T01:32:53.901Z,15.64
2018-05-23T01:35:21.353Z,15.60
2018-05-23T01:37:48.815Z,15.56
2018-05-23T01:40:16.260Z,15.52
2018-05-23T01:42:43.668Z,15.46
2018-05-23T01:45:11.075Z,15.42
2018-05-23T01:47:38.492Z,15.37
2018-05-23T01:50:05.928Z,15.35
2018-05-23T01:52:33.436Z,15.32
2018-05-23T01:55:00.849Z,15.28
2018-05-23T01:57:28.252Z,15.25
2018-05-23T01:59:55.664Z,15.23
2018-05-23T02:02:23.156Z,15.19
2018-05-23T02:04:50.609Z,15.16
2018-05-23T02:07:18.020Z,15.14
2018-05-23T02:09:45.421Z,15.12
2018-05-23T02:12:12.840Z,15.09
2018-05-23T02:14:40.325Z,15.06
2018-05-23T02:17:07.753Z,15.01
2018-05-23T02:19:35.156Z,14.97
2018-05-23T02:22:02.589Z,14.94
2018-05-23T02:24:30.013Z,14.91
2018-05-23T02:26:57.420Z,14.90
2018-05-23T02:29:24.860Z,14.88
2018-05-23T02:31:52.303Z,14.87
2018-05-23T02:34:19.714Z,14.87
2018-05-23T02:36:47.174Z,14.86
2018-05-23T02:39:14.585Z,14.85
2018-05-23T02:41:42.001Z,14.84
2018-05-23T02:44:09.495Z,14.82
2018-05-23T02:46:36.904Z,14.80
2018-05-23T02:49:04.317Z,14.78
2018-05-23T02:51:31.734Z,14.77
2018-05-23T02:53:59.208Z,14.76
2018-05-23T02:56:26.629Z,14.77
2018-05-23T02:58:54.039Z,14.77
2018-05-23T03:01:21.450Z,14.76
2018-05-23T03:03:48.856Z,14.74
2018-05-23T03:06:16.277Z,14.73
2018-05-23T03:08:43.688Z,14.73
2018-05-23T03:11:11.143Z,14.72
2018-05-23T03:13:38.543Z,14.70
2018-05-23T03:16:05.966Z,14.69
2018-05-23T03:18:33.388Z,14.66
2018-05-23T03:21:00.805Z,14.63
2018-05-23T03:23:28.212Z,14.61
2018-05-23T03:25:55.628Z,14.58
2018-05-23T03:28:23.036Z,14.58
2018-05-23T03:30:50.466Z,14.56
2018-05-23T03:33:17.899Z,14.57
2018-05-23T03:35:45.302Z,14.57
2018-05-23T03:38:12.725Z,14.58
2018-05-23T03:40:40.130Z,14.59
2018-05-23T03:43:07.550Z,14.58
2018-05-23T03:45:34.962Z,14.59
2018-05-23T03:48:02.375Z,14.61
2018-05-23T03:50:29.776Z,14.65
2018-05-23T03:52:57.221Z,14.68
2018-05-23T03:55:24.794Z,14.70
2018-05-23T03:57:52.117Z,14.74
2018-05-23T04:00:31.517Z,14.78
2018-05-23T04:03:10.597Z,14.81
2018-05-23T04:05:50.956Z,14.82
2018-05-23T04:08:18.367Z,14.86
2018-05-23T04:10:45.781Z,14.93
2018-05-23T04:13:13.196Z,14.98
2018-05-23T04:15:40.599Z,15.04
2018-05-23T04:18:08.015Z,15.06
2018-05-23T04:20:35.433Z,15.11
2018-05-23T04:23:02.840Z,15.17
2018-05-23T04:25:30.297Z,15.26
2018-05-23T04:27:57.716Z,15.34
2018-05-23T04:30:25.112Z,15.32
2018-05-23T04:32:52.544Z,15.36
2018-05-23T04:35:19.956Z,15.37
2018-05-23T04:37:47.369Z,15.41
2018-05-23T04:40:14.775Z,15.45
2018-05-23T04:42:42.187Z,15.48
2018-05-23T04:45:09.596Z,15.52
2018-05-23T04:47:37.029Z,15.53
2018-05-23T04:50:04.540Z,15.61
2018-05-23T04:52:31.990Z,15.65
2018-05-23T04:54:59.409Z,15.70
2018-05-23T04:57:26.812Z,15.74
2018-05-23T04:59:54.230Z,15.82
2018-05-23T05:02:21.636Z,15.91
2018-05-23T05:04:49.058Z,16.02
2018-05-23T05:07:16.513Z,16.06
2018-05-23T05:09:43.881Z,16.12
2018-05-23T05:12:11.284Z,16.20
2018-05-23T05:14:38.695Z,16.32
2018-05-23T05:17:06.106Z,16.41
2018-05-23T05:19:33.523Z,16.46
2018-05-23T05:22:00.963Z,16.45
2018-05-23T05:24:28.373Z,16.49
2018-05-23T05:26:55.883Z,16.53
2018-05-23T05:29:23.304Z,16.53
2018-05-23T05:31:50.723Z,16.59
2018-05-23T05:34:18.136Z,16.64
2018-05-23T05:36:45.586Z,16.67
2018-05-23T05:39:13.009Z,16.72
2018-05-23T05:41:40.412Z,16.80
2018-05-23T05:44:07.839Z,16.92
2018-05-23T05:46:35.248Z,17.04
2018-05-23T05:49:02.760Z,17.11
2018-05-23T05:51:30.205Z,17.20
2018-05-23T05:53:57.664Z,17.32
2018-05-23T05:56:25.077Z,17.40
2018-05-23T05:58:52.585Z,17.45
2018-05-23T06:01:20.031Z,17.53
2018-05-23T06:03:47.493Z,17.63
2018-05-23T06:06:14.900Z,17.70
2018-05-23T06:08:42.309Z,17.83
2018-05-23T06:11:09.725Z,17.99
2018-05-23T06:13:37.132Z,18.13
2018-05-23T06:16:04.568Z,18.27
2018-05-23T06:18:31.978Z,18.41
2018-05-23T06:20:59.475Z,18.55
2018-05-23T06:23:26.888Z,18.69
2018-05-23T06:25:54.411Z,18.79
2018-05-23T06:28:21.849Z,18.93
2018-05-23T06:30:49.261Z,19.07
2018-05-23T06:33:16.680Z,19.21
2018-05-23T06:35:44.109Z,19.39
2018-05-23T06:38:11.512Z,19.52
2018-05-23T06:40:39.012Z,19.69
2018-05-23T06:43:06.477Z,19.81
2018-05-23T06:45:33.889Z,19.99
2018-05-23T06:48:01.310Z,20.14
2018-05-23T06:50:28.721Z,20.29
2018-05-23T06:52:56.160Z,20.46
2018-05-23T06:55:23.650Z,20.68
2018-05-23T06:57:51.057Z,20.88
2018-05-23T07:00:18.553Z,21.05
2018-05-23T07:02:45.958Z,21.22
2018-05-23T07:05:13.381Z,21.34
2018-05-23T07:07:40.829Z,21.54
2018-05-23T07:10:08.250Z,21.61
2018-05-23T07:12:35.664Z,21.73
2018-05-23T07:15:03.095Z,21.88
2018-05-23T07:17:30.512Z,21.98
2018-05-23T07:19:58.004Z,22.13
2018-05-23T07:22:25.420Z,22.23
2018-05-23T07:24:52.849Z,22.35
2018-05-23T07:27:20.256Z,22.55
2018-05-23T07:29:47.685Z,22.69
2018-05-23T07:32:15.177Z,22.84
2018-05-23T07:34:42.648Z,23.00
2018-05-23T07:37:10.043Z,23.15
2018-05-23T07:39:37.536Z,23.28
2018-05-23T07:42:04.996Z,23.47
2018-05-23T07:44:32.417Z,23.57
2018-05-23T07:46:59.852Z,23.69
2018-05-23T07:49:27.265Z,23.83
2018-05-23T07:51:54.693Z,23.90
2018-05-23T07:54:22.108Z,24.00
2018-05-23T07:56:49.534Z,24.18
2018-05-23T07:59:16.952Z,24.38
2018-05-23T08:01:44.446Z,24.53
2018-05-23T08:04:11.895Z,24.72
2018-05-23T08:06:39.349Z,24.83
2018-05-23T08:09:06.772Z,24.94
2018-05-23T08:11:34.196Z,25.11
2018-05-23T08:14:01.608Z,25.27
2018-05-23T08:16:29.037Z,25.39
2018-05-23T08:18:56.456Z,25.51
2018-05-23T08:21:23.889Z,25.68
2018-05-23T08:23:51.338Z,25.84
2018-05-23T08:26:18.753Z,26.12
2018-05-23T08:28:46.256Z,26.31
2018-05-23T08:31:13.680Z,26.43
2018-05-23T08:33:41.095Z,26.54
2018-05-23T08:36:08.525Z,26.76
2018-05-23T08:38:35.956Z,26.89
2018-05-23T08:41:03.376Z,27.01
2018-05-23T08:43:30.800Z,27.21
2018-05-23T08:45:58.304Z,27.34
2018-05-23T08:48:25.795Z,27.60
2018-05-23T08:50:53.213Z,27.77
2018-05-23T08:53:20.731Z,27.91
2018-05-23T08:55:48.211Z,27.91
2018-05-23T08:58:15.702Z,28.11
2018-05-23T09:00:43.236Z,28.32
2018-05-23T09:03:10.745Z,28.34
2018-05-23T09:05:38.232Z,28.55
2018-05-23T09:08:05.652Z,28.66
2018-05-23T09:10:33.213Z,28.75
2018-05-23T09:13:00.776Z,28.60
2018-05-23T09:15:28.215Z,28.67
2018-05-23T09:17:55.641Z,28.89
2018-05-23T09:20:23.232Z,29.02
2018-05-23T09:22:50.662Z,29.31
2018-05-23T09:25:18.080Z,29.20
2018-05-23T09:27:45.496Z,29.12
2018-05-23T09:30:12.913Z,29.17
2018-05-23T09:32:40.348Z,29.10
2018-05-23T09:35:07.780Z,29.13
2018-05-23T09:37:35.218Z,29.35
2018-05-23T09:40:02.639Z,29.60
2018-05-23T09:42:30.073Z,29.83
2018-05-23T09:44:57.497Z,29.86
2018-05-23T09:47:24.928Z,29.78
2018-05-23T09:49:52.362Z,29.87
2018-05-23T09:52:19.792Z,29.98
2018-05-23T09:54:48.282Z,30.21
2018-05-23T09:57:15.712Z,30.59
2018-05-23T09:59:43.132Z,30.88
2018-05-23T10:02:10.559Z,30.96
2018-05-23T10:04:37.999Z,31.05
2018-05-23T10:07:05.420Z,31.08
2018-05-23T10:09:32.914Z,31.26
2018-05-23T10:12:00.353Z,31.23
2018-05-23T10:14:27.793Z,31.28
2018-05-23T10:16:56.418Z,31.29
2018-05-23T10:19:23.860Z,31.19
2018-05-23T10:21:51.284Z,31.18
2018-05-23T10:24:18.728Z,31.11
2018-05-23T10:26:46.152Z,30.91
2018-05-23T10:29:13.577Z,30.92
2018-05-23T10:31:41.016Z,30.85
2018-05-23T10:34:08.992Z,30.93
2018-05-23T10:36:36.440Z,31.19
2018-05-23T10:39:03.920Z,31.15
2018-05-23T10:41:31.289Z,31.09
2018-05-23T10:43:58.704Z,30.84
2018-05-23T10:46:26.140Z,31.00
2018-05-23T10:48:53.552Z,31.17
2018-05-23T10:51:20.989Z,31.51
2018-05-23T10:53:48.408Z,31.62
2018-05-23T10:56:15.836Z,31.68
2018-05-23T10:58:43.303Z,31.76
2018-05-23T11:01:10.731Z,31.67
2018-05-23T11:03:38.166Z,31.46
2018-05-23T11:06:05.577Z,31.44
2018-05-23T11:08:33.007Z,31.51
2018-05-23T11:11:00.424Z,31.43
2018-05-23T11:13:27.861Z,31.27
2018-05-23T11:15:55.280Z,31.19
2018-05-23T11:18:22.703Z,31.27
2018-05-23T11:20:50.122Z,31.31
2018-05-23T11:23:17.539Z,31.33
2018-05-23T11:25:44.986Z,31.31
2018-05-23T11:28:12.465Z,31.38
2018-05-23T11:30:39.879Z,31.58
2018-05-23T11:33:07.316Z,31.51
2018-05-23T11:35:34.730Z,31.47
2018-05-23T11:38:02.164Z,31.52
2018-05-23T11:40:29.580Z,31.45
2018-05-23T11:42:57.083Z,31.38
2018-05-23T11:45:24.496Z,31.20
2018-05-23T11:47:51.924Z,31.09
2018-05-23T11:50:19.349Z,31.05
2018-05-23T11:52:46.796Z,31.04
2018-05-23T11:55:14.204Z,30.85
2018-05-23T11:57:41.632Z,30.89
2018-05-23T12:00:09.044Z,31.06
2018-05-23T12:02:36.472Z,31.19
2018-05-23T12:05:03.893Z,31.24
2018-05-23T12:07:31.318Z,31.04
2018-05-23T12:09:58.736Z,31.03
2018-05-23T12:12:26.170Z,31.10
2018-05-23T12:14:53.589Z,31.21
2018-05-23T12:17:21.009Z,31.55
2018-05-23T12:19:48.420Z,31.77
2018-05-23T12:22:15.949Z,31.63
2018-05-23T12:24:43.378Z,31.39
2018-05-23T12:27:10.836Z,31.28
2018-05-23T12:29:38.253Z,31.40
2018-05-23T12:32:05.665Z,31.39
2018-05-23T12:34:33.098Z,31.26
2018-05-23T12:37:00.528Z,31.40
2018-05-23T12:39:27.957Z,31.42
2018-05-23T12:41:55.368Z,31.48
2018-05-23T12:44:22.803Z,31.62
2018-05-23T12:46:50.245Z,31.62
2018-05-23T12:49:17.670Z,31.55
2018-05-23T12:51:45.100Z,31.53
2018-05-23T12:54:12.567Z,31.55
2018-05-23T12:56:40.031Z,31.60
2018-05-23T12:59:07.485Z,31.62
2018-05-23T13:01:34.903Z,31.74
2018-05-23T13:04:02.393Z,31.94
2018-05-23T13:06:29.816Z,31.88
2018-05-23T13:08:57.312Z,31.99
2018-05-23T13:11:24.771Z,32.36
2018-05-23T13:13:52.223Z,32.33
2018-05-23T13:16:19.636Z,32.13
2018-05-23T13:18:47.120Z,31.95
2018-05-23T13:21:14.532Z,31.65
2018-05-23T13:23:41.953Z,31.63
2018-05-23T13:26:09.392Z,31.72
2018-05-23T13:28:36.826Z,31.76
2018-05-23T13:31:04.236Z,31.71
2018-05-23T13:33:31.662Z,31.43
2018-05-23T13:35:59.076Z,31.25
2018-05-23T13:38:26.500Z,31.22
2018-05-23T13:40:54.016Z,31.18
2018-05-23T13:43:21.448Z,31.31
2018-05-23T13:45:48.855Z,30.96
2018-05-23T13:48:16.283Z,30.65
2018-05-23T13:50:43.698Z,30.67
2018-05-23T13:53:11.129Z,30.93
2018-05-23T13:55:38.547Z,31.06
2018-05-23T13:58:05.984Z,31.37
2018-05-23T14:00:33.400Z,31.44
2018-05-23T14:03:00.824Z,31.22
2018-05-23T14:05:28.240Z,30.83
2018-05-23T14:07:55.684Z,30.70
2018-05-23T14:10:23.109Z,30.70
2018-05-23T14:12:50.540Z,30.44
2018-05-23T14:15:17.951Z,30.02
2018-05-23T14:17:45.384Z,30.00
2018-05-23T14:20:12.806Z,30.02
2018-05-23T14:22:40.229Z,30.06
2018-05-23T14:25:07.662Z,30.15
2018-05-23T14:27:35.076Z,30.19
2018-05-23T14:30:02.516Z,30.22
2018-05-23T14:32:29.944Z,30.04
2018-05-23T14:34:57.364Z,30.16
2018-05-23T14:37:24.782Z,30.33
2018-05-23T14:39:52.221Z,30.31
2018-05-23T14:42:19.627Z,30.42
2018-05-23T14:44:47.061Z,30.47
2018-05-23T14:47:14.482Z,30.45
2018-05-23T14:49:41.925Z,30.27
2018-05-23T14:52:09.348Z,30.02
2018-05-23T14:54:36.773Z,29.92
2018-05-23T14:57:04.196Z,29.73
2018-05-23T14:59:31.620Z,29.57
2018-05-23T15:01:59.045Z,29.63
2018-05-23T15:04:26.484Z,29.53
2018-05-23T15:06:53.901Z,29.25
2018-05-23T15:09:21.324Z,29.25
2018-05-23T15:11:48.747Z,29.13
2018-05-23T15:14:16.188Z,29.01
2018-05-23T15:16:43.596Z,29.02
2018-05-23T15:19:11.012Z,29.04
2018-05-23T15:21:38.441Z,29.04
2018-05-23T15:24:05.863Z,29.10
2018-05-23T15:26:33.280Z,29.04
2018-05-23T15:29:00.704Z,29.04
2018-05-23T15:31:28.212Z,29.01
2018-05-23T15:33:55.553Z,29.05
2018-05-23T15:36:22.969Z,29.06
2018-05-23T15:38:50.397Z,29.14
2018-05-23T15:41:17.857Z,29.08
2018-05-23T15:43:45.286Z,28.98
2018-05-23T15:46:12.701Z,28.93
2018-05-23T15:48:40.121Z,28.75
2018-05-23T15:51:07.559Z,28.53
2018-05-23T15:53:34.965Z,28.30
2018-05-23T15:56:02.406Z,28.05
2018-05-23T15:58:29.821Z,27.80
2018-05-23T16:00:57.253Z,27.71
2018-05-23T16:03:24.673Z,27.54
2018-05-23T16:05:52.097Z,27.42
2018-05-23T16:08:19.514Z,27.26
2018-05-23T16:10:46.934Z,27.24
2018-05-23T16:13:14.356Z,27.22
2018-05-23T16:15:41.772Z,27.18
2018-05-23T16:18:09.214Z,27.13
2018-05-23T16:20:36.667Z,27.06
2018-05-23T16:23:04.044Z,26.98
2018-05-23T16:25:31.488Z,26.83
2018-05-23T16:27:58.918Z,26.79
2018-05-23T16:30:26.342Z,26.82
2018-05-23T16:32:53.761Z,26.78
2018-05-23T16:35:21.187Z,26.74
2018-05-23T16:37:48.606Z,26.66
2018-05-23T16:40:16.036Z,26.52
2018-05-23T16:42:43.447Z,26.45
2018-05-23T16:45:10.888Z,26.41
2018-05-23T16:47:38.306Z,26.36
2018-05-23T16:50:05.736Z,26.33
2018-05-23T16:52:33.156Z,26.33
2018-05-23T16:55:09.265Z,26.29
2018-05-23T16:57:46.971Z,26.25
2018-05-23T17:00:14.612Z,26.29
2018-05-23T17:02:42.855Z,26.22
2018-05-23T17:05:10.276Z,26.12
2018-05-23T17:07:39.052Z,26.08
2018-05-23T17:10:06.475Z,25.99
2018-05-23T17:12:34.057Z,25.91
2018-05-23T17:15:01.413Z,25.87
2018-05-23T17:17:28.844Z,25.80
2018-05-23T17:19:56.265Z,25.66
2018-05-23T17:22:23.697Z,25.65
2018-05-23T17:24:51.877Z,25.61
2018-05-23T17:27:19.347Z,25.59
2018-05-23T17:29:46.716Z,25.68
2018-05-23T17:32:14.142Z,25.59
2018-05-23T17:34:41.572Z,25.53
2018-05-23T17:37:08.993Z,25.52
2018-05-23T17:39:36.411Z,25.47
2018-05-23T17:42:03.916Z,25.35
2018-05-23T17:44:31.340Z,25.30
2018-05-23T17:46:58.825Z,25.36
2018-05-23T17:49:26.241Z,25.41
2018-05-23T17:51:53.668Z,25.37
2018-05-23T17:54:21.097Z,25.39
2018-05-23T17:56:48.533Z,25.38
2018-05-23T17:59:15.952Z,25.32
2018-05-23T18:01:43.385Z,25.20
2018-05-23T18:04:10.796Z,25.13
2018-05-23T18:06:38.225Z,25.14
2018-05-23T18:09:05.645Z,25.16
2018-05-23T18:11:33.068Z,25.15
2018-05-23T18:14:00.531Z,25.12
2018-05-23T18:16:27.960Z,25.02
2018-05-23T18:18:55.453Z,24.97
2018-05-23T18:21:22.913Z,24.91
2018-05-23T18:23:50.425Z,24.87
2018-05-23T18:26:17.756Z,24.74
2018-05-23T18:28:45.169Z,24.68
2018-05-23T18:31:12.625Z,24.57
2018-05-23T18:33:40.045Z,24.50
2018-05-23T18:36:07.528Z,24.38
2018-05-23T18:38:34.940Z,24.29
2018-05-23T18:41:02.365Z,24.21
2018-05-23T18:43:29.865Z,24.24
2018-05-23T18:45:57.223Z,24.18
2018-05-23T18:48:24.636Z,24.14
2018-05-23T18:50:52.173Z,24.14
2018-05-23T18:53:19.585Z,24.04
2018-05-23T18:55:47.024Z,23.91
2018-05-23T18:58:14.529Z,23.85
2018-05-23T19:00:41.988Z,23.78
2018-05-23T19:03:09.449Z,23.68
2018-05-23T19:05:36.876Z,23.65
2018-05-23T19:08:04.308Z,23.57
2018-05-23T19:10:31.747Z,23.54
2018-05-23T19:12:59.173Z,23.44
2018-05-23T19:15:26.625Z,23.38
2018-05-23T19:17:54.081Z,23.32
2018-05-23T19:20:21.536Z,23.28
2018-05-23T19:22:48.965Z,23.24
2018-05-23T19:25:16.477Z,23.15
2018-05-23T19:27:43.964Z,23.12
2018-05-23T19:30:11.461Z,23.04
2018-05-23T19:32:38.877Z,22.94
2018-05-23T19:35:06.293Z,22.85
2018-05-23T19:37:33.825Z,22.71
2018-05-23T19:40:01.245Z,22.59
2018-05-23T19:42:28.680Z,22.53
2018-05-23T19:44:56.101Z,22.53
2018-05-23T19:47:23.532Z,22.52
2018-05-23T19:49:50.939Z,22.49
2018-05-23T19:52:18.357Z,22.43
2018-05-23T19:54:45.785Z,22.36
2018-05-23T19:57:13.208Z,22.35
2018-05-23T19:59:40.624Z,22.29
2018-05-23T20:02:08.100Z,22.31
2018-05-23T20:04:35.461Z,22.32
2018-05-23T20:07:02.883Z,22.28
2018-05-23T20:09:30.299Z,22.29
2018-05-23T20:11:57.724Z,22.30
2018-05-23T20:14:25.232Z,22.24
2018-05-23T20:16:52.572Z,22.23
2018-05-23T20:19:20.061Z,22.21
2018-05-23T20:21:47.503Z,22.17
2018-05-23T20:24:14.917Z,22.10
2018-05-23T20:26:42.343Z,22.05
2018-05-23T20:29:09.815Z,22.01
2018-05-23T20:31:37.234Z,21.92
2018-05-23T20:34:04.690Z,21.85
2018-05-23T20:36:32.100Z,21.71
2018-05-23T20:38:59.603Z,21.59
2018-05-23T20:41:27.058Z,21.52
2018-05-23T20:43:54.469Z,21.41
2018-05-23T20:46:21.907Z,21.33
2018-05-23T20:48:49.316Z,21.30
2018-05-23T20:51:16.764Z,21.23
2018-05-23T20:53:45.629Z,21.16
2018-05-23T20:56:13.050Z,21.06
2018-05-23T20:58:40.524Z,21.03
2018-05-23T21:01:07.894Z,21.02
2018-05-23T21:03:35.296Z,21.00
2018-05-23T21:06:02.705Z,20.93
2018-05-23T21:08:30.145Z,20.86
2018-05-23T21:10:57.565Z,20.85
2018-05-23T21:13:25.003Z,20.82
2018-05-23T21:15:52.407Z,20.74
2018-05-23T21:18:19.915Z,20.66
2018-05-23T21:20:47.332Z,20.56
2018-05-23T21:23:14.745Z,20.53
2018-05-23T21:25:42.177Z,20.57
2018-05-23T21:28:09.602Z,20.62
2018-05-23T21:30:37.012Z,20.62
2018-05-23T21:33:04.439Z,20.64
2018-05-23T21:35:31.870Z,20.63
2018-05-23T21:37:59.328Z,20.58
2018-05-23T21:40:26.733Z,20.56
2018-05-23T21:42:54.152Z,20.57
2018-05-23T21:45:21.556Z,20.59
2018-05-23T21:47:48.972Z,20.61
2018-05-23T21:50:16.393Z,20.55
2018-05-23T21:52:43.820Z,20.47
2018-05-23T21:55:11.236Z,20.43
2018-05-23T21:57:38.665Z,20.39
2018-05-23T22:00:06.068Z,20.36
2018-05-23T22:02:33.495Z,20.31
2018-05-23T22:05:00.908Z,20.17
2018-05-23T22:07:28.324Z,20.07
2018-05-23T22:09:55.735Z,20.04
2018-05-23T22:12:23.156Z,19.97
2018-05-23T22:14:50.572Z,19.93
2018-05-23T22:17:17.997Z,19.90
2018-05-23T22:19:45.405Z,19.82
2018-05-23T22:22:12.831Z,19.79
2018-05-23T22:24:40.417Z,19.65
2018-05-23T22:27:07.671Z,19.52
2018-05-23T22:29:35.092Z,19.43
2018-05-23T22:32:02.504Z,19.38
2018-05-23T22:34:29.927Z,19.27
2018-05-23T22:36:57.328Z,19.18
2018-05-23T22:39:24.750Z,19.16
2018-05-23T22:41:52.164Z,19.08
2018-05-23T22:44:19.580Z,19.03
2018-05-23T22:46:46.993Z,19.07
2018-05-23T22:49:14.425Z,19.05
2018-05-23T22:51:41.841Z,18.99
2018-05-23T22:54:09.256Z,18.96
2018-05-23T22:56:36.665Z,18.90
2018-05-23T22:59:04.080Z,18.97
2018-05-23T23:01:31.501Z,18.97
2018-05-23T23:03:58.969Z,18.92
2018-05-23T23:06:26.381Z,18.86
2018-05-23T23:08:53.820Z,18.81
2018-05-23T23:11:21.232Z,18.74
2018-05-23T23:13:48.646Z,18.78
2018-05-23T23:16:16.052Z,18.80
2018-05-23T23:18:43.469Z,18.75
2018-05-23T23:21:10.913Z,18.71
2018-05-23T23:23:38.328Z,18.66
2018-05-23T23:26:05.742Z,18.63
2018-05-23T23:28:33.166Z,18.56
2018-05-23T23:31:00.570Z,18.49
2018-05-23T23:33:27.985Z,18.41
2018-05-23T23:35:55.389Z,18.34
2018-05-23T23:38:22.825Z,18.30
2018-05-23T23:40:50.232Z,18.28
2018-05-23T23:43:17.644Z,18.24
2018-05-23T23:45:45.093Z,18.22
2018-05-23T23:48:12.512Z,18.23
2018-05-23T23:50:39.916Z,18.28
2018-05-23T23:53:07.351Z,18.27
2018-05-23T23:55:34.762Z,18.22
2018-05-23T23:58:02.178Z,18.18
